Time;durP1;ratioP1;P1;durP2;ratioP2;P2;SDS_P1;SDS_P2;PMS_P1;PMS_P2;Temp;Humidity;BMP_temperature;BMP_pressure;BME280_temperature;BME280_humidity;BME280_pressure;Samples;Min_cycle;Max_cycle;Signal;HPM_P1;HPM_P2
2022/07/08 00:00:22;;;;;;;6.90;2.60;;;;;;;;;;5016889;28;20473;-67
2022/07/08 00:02:48;;;;;;;5.60;2.42;;;;;;;;;;5016034;28;20034;-67
2022/07/08 00:05:15;;;;;;;6.78;2.65;;;;;;;;;;5012216;28;20502;-66
2022/07/08 00:07:42;;;;;;;6.25;3.15;;;;;;;;;;5010510;28;20522;-67
2022/07/08 00:10:09;;;;;;;8.32;3.60;;;;;;;;;;5011325;28;20055;-68
2022/07/08 00:12:36;;;;;;;8.65;3.60;;;;;;;;;;5014766;28;20140;-66
2022/07/08 00:15:03;;;;;;;8.30;3.25;;;;;;;;;;5018038;28;20038;-67
2022/07/08 00:17:29;;;;;;;6.75;2.45;;;;;;;;;;5012978;28;20045;-65
2022/07/08 00:19:56;;;;;;;5.10;2.20;;;;;;;;;;5017349;28;20040;-66
2022/07/08 00:22:23;;;;;;;5.75;2.10;;;;;;;;;;5016695;28;20042;-66
2022/07/08 00:24:49;;;;;;;4.85;1.85;;;;;;;;;;5014521;28;20068;-65
2022/07/08 00:27:19;;;;;;;5.03;2.00;;;;;;;;;;5014390;28;20037;-65
2022/07/08 00:29:46;;;;;;;5.80;1.70;;;;;;;;;;5020015;28;20057;-66
2022/07/08 00:32:13;;;;;;;7.53;1.77;;;;;;;;;;5015279;28;20033;-65
2022/07/08 00:34:40;;;;;;;4.30;1.40;;;;;;;;;;5024360;28;20451;-65
2022/07/08 00:37:07;;;;;;;7.57;1.83;;;;;;;;;;5010055;28;20060;-65
2022/07/08 00:39:33;;;;;;;3.65;1.65;;;;;;;;;;5015097;28;20041;-65
2022/07/08 00:42:01;;;;;;;4.20;1.63;;;;;;;;;;5015605;28;20069;-64
2022/07/08 00:44:27;;;;;;;4.20;1.30;;;;;;;;;;5012546;28;20139;-65
2022/07/08 00:46:54;;;;;;;3.25;1.10;;;;;;;;;;5012172;28;20152;-66
2022/07/08 00:49:21;;;;;;;3.42;1.10;;;;;;;;;;5003072;28;20380;-66
2022/07/08 00:51:48;;;;;;;3.60;1.27;;;;;;;;;;5011472;28;20061;-66
2022/07/08 00:54:16;;;;;;;3.63;1.10;;;;;;;;;;5012278;28;20050;-66
2022/07/08 00:56:42;;;;;;;3.28;1.13;;;;;;;;;;5014516;28;21995;-67
2022/07/08 00:59:09;;;;;;;2.85;0.88;;;;;;;;;;5013622;28;20463;-65
2022/07/08 01:01:36;;;;;;;5.95;1.50;;;;;;;;;;5027781;28;20034;-65
2022/07/08 01:04:04;;;;;;;3.53;1.13;;;;;;;;;;5014871;28;20037;-64
2022/07/08 01:06:30;;;;;;;7.00;1.40;;;;;;;;;;5026034;28;20052;-65
2022/07/08 01:08:57;;;;;;;3.08;0.98;;;;;;;;;;5015948;28;20037;-64
2022/07/08 01:11:24;;;;;;;3.17;0.98;;;;;;;;;;5014376;28;20392;-64
2022/07/08 01:13:50;;;;;;;3.00;1.10;;;;;;;;;;5015719;28;20041;-64
2022/07/08 01:16:17;;;;;;;5.05;1.10;;;;;;;;;;5018402;28;20083;-63
2022/07/08 01:18:44;;;;;;;3.45;1.30;;;;;;;;;;5018049;28;20033;-64
2022/07/08 01:21:11;;;;;;;3.60;1.33;;;;;;;;;;5017187;28;20056;-62
2022/07/08 01:23:37;;;;;;;2.67;1.00;;;;;;;;;;5016544;28;21006;-62
2022/07/08 01:26:11;;;;;;;5.57;1.30;;;;;;;;;;5018652;28;20553;-62
2022/07/08 01:28:39;;;;;;;2.92;0.98;;;;;;;;;;5021400;28;20048;-63
2022/07/08 01:31:06;;;;;;;4.40;1.10;;;;;;;;;;5021307;28;20069;-65
2022/07/08 01:33:33;;;;;;;5.70;1.10;;;;;;;;;;5019818;28;20060;-64
2022/07/08 01:35:59;;;;;;;3.40;1.02;;;;;;;;;;5022922;28;20037;-64
2022/07/08 01:38:26;;;;;;;4.57;0.70;;;;;;;;;;5015346;28;20440;-63
2022/07/08 01:40:53;;;;;;;3.03;0.88;;;;;;;;;;5016001;28;20034;-64
2022/07/08 01:43:20;;;;;;;3.40;1.10;;;;;;;;;;5021232;28;20041;-63
2022/07/08 01:45:47;;;;;;;3.53;1.10;;;;;;;;;;5013786;28;20045;-63
2022/07/08 01:48:14;;;;;;;4.28;1.27;;;;;;;;;;5016598;28;20072;-63
2022/07/08 01:50:40;;;;;;;4.15;1.00;;;;;;;;;;5019002;28;20049;-63
2022/07/08 01:53:07;;;;;;;3.35;1.00;;;;;;;;;;5017362;28;20121;-63
2022/07/08 01:55:34;;;;;;;3.38;1.20;;;;;;;;;;5016427;28;20045;-64
2022/07/08 01:58:00;;;;;;;6.55;1.40;;;;;;;;;;5018181;28;20549;-64
2022/07/08 02:00:27;;;;;;;3.30;1.30;;;;;;;;;;5019233;28;20029;-63
2022/07/08 02:02:54;;;;;;;3.42;1.30;;;;;;;;;;5028839;28;20099;-64
2022/07/08 02:05:20;;;;;;;5.63;1.38;;;;;;;;;;5021953;28;20041;-64
2022/07/08 02:07:47;;;;;;;3.30;1.35;;;;;;;;;;5019125;28;20457;-64
2022/07/08 02:10:13;;;;;;;5.65;1.35;;;;;;;;;;5017650;28;20085;-64
2022/07/08 02:12:40;;;;;;;5.22;1.27;;;;;;;;;;5014710;28;20044;-63
2022/07/08 02:15:09;;;;;;;3.70;1.30;;;;;;;;;;5016606;28;20037;-64
2022/07/08 02:17:37;;;;;;;5.03;1.50;;;;;;;;;;5018558;28;20046;-63
2022/07/08 02:20:08;;;;;;;5.57;1.50;;;;;;;;;;5017029;28;20041;-63
2022/07/08 02:22:35;;;;;;;3.90;1.50;;;;;;;;;;5014107;28;20045;-64
2022/07/08 02:25:02;;;;;;;3.47;1.30;;;;;;;;;;5017528;28;20082;-64
2022/07/08 02:27:28;;;;;;;7.80;2.20;;;;;;;;;;5016336;28;20041;-63
2022/07/08 02:29:55;;;;;;;3.83;1.77;;;;;;;;;;5013467;28;20038;-64
2022/07/08 02:32:22;;;;;;;4.18;1.58;;;;;;;;;;5015389;28;20044;-64
2022/07/08 02:34:48;;;;;;;5.88;1.55;;;;;;;;;;5014203;28;20064;-64
2022/07/08 02:37:15;;;;;;;4.18;1.30;;;;;;;;;;5013589;28;20056;-64
2022/07/08 02:39:42;;;;;;;3.42;1.50;;;;;;;;;;5014450;28;20042;-64
2022/07/08 02:42:09;;;;;;;3.30;1.15;;;;;;;;;;5027885;28;20045;-64
2022/07/08 02:44:36;;;;;;;4.72;1.52;;;;;;;;;;5015279;28;20145;-64
2022/07/08 02:47:04;;;;;;;3.20;1.30;;;;;;;;;;5014691;28;20056;-65
2022/07/08 02:49:31;;;;;;;3.35;1.30;;;;;;;;;;5016626;28;20057;-64
2022/07/08 02:51:58;;;;;;;3.92;1.42;;;;;;;;;;5016801;28;20499;-64
2022/07/08 02:54:24;;;;;;;5.35;1.38;;;;;;;;;;5012830;28;20963;-64
2022/07/08 02:56:51;;;;;;;4.63;1.90;;;;;;;;;;5017439;28;20037;-60
2022/07/08 02:59:18;;;;;;;5.43;2.20;;;;;;;;;;5019666;28;20394;-63
2022/07/08 03:01:44;;;;;;;4.43;2.05;;;;;;;;;;5017295;28;20033;-66
2022/07/08 03:04:11;;;;;;;18.77;10.82;;;;;;;;;;5035342;28;20038;-66
2022/07/08 03:06:38;;;;;;;11.88;6.20;;;;;;;;;;5018361;28;20148;-67
2022/07/08 03:09:04;;;;;;;4.75;2.58;;;;;;;;;;5029137;28;20412;-65
2022/07/08 03:11:31;;;;;;;6.68;1.80;;;;;;;;;;5015612;28;20195;-66
2022/07/08 03:13:58;;;;;;;3.72;1.50;;;;;;;;;;5012803;28;20030;-66
2022/07/08 03:16:24;;;;;;;4.72;1.92;;;;;;;;;;5012130;28;20446;-65
2022/07/08 03:18:51;;;;;;;5.60;2.05;;;;;;;;;;5014480;28;20096;-64
2022/07/08 03:21:17;;;;;;;6.20;1.92;;;;;;;;;;5014624;28;20045;-64
2022/07/08 03:23:44;;;;;;;6.53;1.77;;;;;;;;;;5024675;28;20491;-65
2022/07/08 03:26:11;;;;;;;6.70;1.92;;;;;;;;;;5014016;28;20163;-66
2022/07/08 03:28:37;;;;;;;4.35;1.88;;;;;;;;;;5014622;28;20064;-66
2022/07/08 03:31:04;;;;;;;6.20;1.90;;;;;;;;;;5014164;28;20042;-66
2022/07/08 03:33:31;;;;;;;5.55;2.13;;;;;;;;;;5012584;28;20038;-65
2022/07/08 03:36:00;;;;;;;6.95;1.88;;;;;;;;;;5024920;28;20141;-65
2022/07/08 03:38:27;;;;;;;3.65;1.77;;;;;;;;;;5011267;28;20053;-65
2022/07/08 03:43:39;;;;;;;7.47;1.77;;;;;;;;;;5013037;28;20052;-66
2022/07/08 03:46:06;;;;;;;5.65;2.20;;;;;;;;;;5009396;28;20187;-65
2022/07/08 03:48:32;;;;;;;4.38;1.67;;;;;;;;;;5013580;28;20092;-65
2022/07/08 03:50:59;;;;;;;5.22;1.80;;;;;;;;;;5024899;28;20464;-65
2022/07/08 03:53:25;;;;;;;4.13;1.80;;;;;;;;;;5012589;28;20399;-65
2022/07/08 03:55:52;;;;;;;5.30;2.15;;;;;;;;;;5013617;28;20060;-62
2022/07/08 03:58:19;;;;;;;10.02;3.88;;;;;;;;;;5012040;28;20107;-64
2022/07/08 04:00:45;;;;;;;7.18;2.90;;;;;;;;;;5011779;28;20121;-64
2022/07/08 04:03:12;;;;;;;5.80;2.50;;;;;;;;;;5015164;28;20467;-66
2022/07/08 04:05:39;;;;;;;6.55;2.50;;;;;;;;;;5012330;28;20145;-66
2022/07/08 04:08:06;;;;;;;4.95;1.88;;;;;;;;;;5013407;28;20058;-65
2022/07/08 04:10:33;;;;;;;7.55;2.22;;;;;;;;;;5026045;28;20202;-65
2022/07/08 04:12:59;;;;;;;5.70;2.03;;;;;;;;;;5025493;28;20026;-65
2022/07/08 04:15:26;;;;;;;4.88;2.50;;;;;;;;;;5012280;28;20403;-66
2022/07/08 04:17:52;;;;;;;5.10;2.20;;;;;;;;;;5014212;28;20045;-64
2022/07/08 04:20:22;;;;;;;7.63;2.30;;;;;;;;;;5013644;28;20044;-67
2022/07/08 04:22:49;;;;;;;6.40;2.47;;;;;;;;;;5011970;28;21801;-66
2022/07/08 04:25:15;;;;;;;12.52;3.83;;;;;;;;;;5025807;28;20590;-66
2022/07/08 04:27:42;;;;;;;5.78;2.50;;;;;;;;;;5029509;28;20104;-66
2022/07/08 04:30:09;;;;;;;8.77;2.70;;;;;;;;;;5016095;28;20040;-66
2022/07/08 04:32:36;;;;;;;9.48;2.28;;;;;;;;;;5028485;28;20034;-65
2022/07/08 04:35:02;;;;;;;9.63;3.35;;;;;;;;;;5017334;28;20038;-66
2022/07/08 04:37:29;;;;;;;9.48;3.15;;;;;;;;;;5016212;28;20041;-65
2022/07/08 04:39:56;;;;;;;7.45;2.80;;;;;;;;;;5019602;28;20048;-65
2022/07/08 04:42:22;;;;;;;10.88;3.17;;;;;;;;;;5017196;28;20042;-66
2022/07/08 04:44:50;;;;;;;6.97;2.75;;;;;;;;;;5019876;28;20116;-65
2022/07/08 04:47:17;;;;;;;8.25;3.30;;;;;;;;;;5017423;28;20128;-65
2022/07/08 04:49:43;;;;;;;8.95;3.13;;;;;;;;;;5020119;28;20047;-65
2022/07/08 04:52:10;;;;;;;7.63;3.00;;;;;;;;;;5022913;28;20088;-65
2022/07/08 04:54:37;;;;;;;7.88;2.78;;;;;;;;;;5021973;28;20073;-65
2022/07/08 04:57:05;;;;;;;7.13;2.97;;;;;;;;;;5033351;28;20065;-65
2022/07/08 04:59:32;;;;;;;6.38;3.33;;;;;;;;;;5018771;28;20061;-65
2022/07/08 05:01:58;;;;;;;6.63;3.28;;;;;;;;;;5020400;28;20342;-65
2022/07/08 05:04:25;;;;;;;10.25;3.90;;;;;;;;;;5019366;28;20087;-65
2022/07/08 05:06:52;;;;;;;7.57;3.10;;;;;;;;;;5018834;28;20507;-65
2022/07/08 05:09:18;;;;;;;5.82;3.15;;;;;;;;;;5017502;28;20156;-66
2022/07/08 05:11:45;;;;;;;7.20;3.78;;;;;;;;;;5015057;28;20061;-65
2022/07/08 05:14:13;;;;;;;14.10;4.40;;;;;;;;;;5017032;28;20096;-65
2022/07/08 05:16:43;;;;;;;12.27;4.35;;;;;;;;;;5017225;28;20033;-66
2022/07/08 05:19:10;;;;;;;9.57;4.00;;;;;;;;;;5018282;28;20046;-65
2022/07/08 05:21:37;;;;;;;10.05;3.78;;;;;;;;;;5030289;28;20655;-65
2022/07/08 05:24:07;;;;;;;8.52;3.88;;;;;;;;;;5018551;28;20919;-64
2022/07/08 05:26:34;;;;;;;10.48;4.22;;;;;;;;;;5018834;28;20525;-64
2022/07/08 05:29:01;;;;;;;9.98;4.13;;;;;;;;;;5017913;28;21961;-64
2022/07/08 05:31:28;;;;;;;11.98;4.25;;;;;;;;;;5032274;28;20727;-64
2022/07/08 05:33:54;;;;;;;9.20;4.15;;;;;;;;;;5015868;28;20076;-65
2022/07/08 05:36:21;;;;;;;9.32;4.63;;;;;;;;;;5017605;28;20037;-65
2022/07/08 05:38:48;;;;;;;9.75;4.45;;;;;;;;;;5018441;28;20044;-65
2022/07/08 05:41:14;;;;;;;14.05;4.65;;;;;;;;;;5015610;28;20376;-64
2022/07/08 05:43:41;;;;;;;8.02;4.40;;;;;;;;;;5013044;28;20544;-65
2022/07/08 05:46:08;;;;;;;8.40;4.28;;;;;;;;;;5015015;28;21636;-65
2022/07/08 05:48:34;;;;;;;13.00;4.93;;;;;;;;;;5013455;28;20029;-65
2022/07/08 05:51:01;;;;;;;8.00;4.45;;;;;;;;;;5014506;28;20049;-65
2022/07/08 05:53:28;;;;;;;8.18;4.18;;;;;;;;;;5025888;28;20073;-66
2022/07/08 05:55:54;;;;;;;10.70;4.40;;;;;;;;;;5014832;28;20531;-66
2022/07/08 05:58:21;;;;;;;10.43;5.32;;;;;;;;;;5014948;28;20068;-65
2022/07/08 06:00:48;;;;;;;8.95;4.20;;;;;;;;;;5014740;28;20077;-65
2022/07/08 06:03:14;;;;;;;8.55;4.40;;;;;;;;;;5015222;28;20517;-66
2022/07/08 06:05:41;;;;;;;12.55;4.57;;;;;;;;;;5013671;28;20104;-66
2022/07/08 06:08:08;;;;;;;11.20;4.88;;;;;;;;;;5015841;28;20073;-66
2022/07/08 06:10:35;;;;;;;12.45;4.70;;;;;;;;;;5015461;28;20092;-65
2022/07/08 06:13:01;;;;;;;13.50;5.03;;;;;;;;;;5015309;28;20068;-64
2022/07/08 06:15:28;;;;;;;12.40;5.28;;;;;;;;;;5012898;28;20128;-65
2022/07/08 06:17:55;;;;;;;9.85;4.88;;;;;;;;;;5015308;28;20374;-64
2022/07/08 06:20:21;;;;;;;9.73;4.60;;;;;;;;;;5013352;28;20040;-64
2022/07/08 06:22:50;;;;;;;8.65;4.40;;;;;;;;;;5020168;28;20038;-64
2022/07/08 06:25:17;;;;;;;10.80;5.00;;;;;;;;;;5011630;28;20100;-64
2022/07/08 06:27:43;;;;;;;9.77;4.88;;;;;;;;;;5014236;28;20041;-64
2022/07/08 06:30:10;;;;;;;9.85;4.78;;;;;;;;;;5015507;28;20079;-64
2022/07/08 06:32:37;;;;;;;8.02;4.68;;;;;;;;;;5012421;28;20052;-64
2022/07/08 06:35:04;;;;;;;14.43;5.35;;;;;;;;;;5026131;28;20034;-64
2022/07/08 06:37:30;;;;;;;9.93;4.95;;;;;;;;;;5013174;28;20046;-64
2022/07/08 06:39:57;;;;;;;12.70;4.78;;;;;;;;;;5014882;28;20042;-63
2022/07/08 06:42:23;;;;;;;8.40;4.82;;;;;;;;;;5011897;28;20462;-63
2022/07/08 06:44:50;;;;;;;11.98;5.25;;;;;;;;;;5013215;28;20040;-64
2022/07/08 06:47:17;;;;;;;12.15;5.38;;;;;;;;;;5013461;28;20064;-65
2022/07/08 06:49:43;;;;;;;9.55;4.82;;;;;;;;;;5012785;28;20041;-64
2022/07/08 06:52:10;;;;;;;8.05;4.72;;;;;;;;;;5011660;28;20040;-64
2022/07/08 06:54:37;;;;;;;9.45;5.15;;;;;;;;;;5013197;28;20044;-65
2022/07/08 06:57:05;;;;;;;9.32;4.95;;;;;;;;;;5014650;28;20525;-64
2022/07/08 06:59:32;;;;;;;10.20;4.70;;;;;;;;;;5011926;28;20402;-64
2022/07/08 07:01:59;;;;;;;10.27;4.20;;;;;;;;;;5013335;28;20049;-64
2022/07/08 07:04:26;;;;;;;6.05;3.83;;;;;;;;;;5015416;28;20374;-64
2022/07/08 07:06:53;;;;;;;7.03;4.00;;;;;;;;;;5013815;28;20765;-63
2022/07/08 07:09:20;;;;;;;8.55;4.25;;;;;;;;;;5009613;28;20029;-63
2022/07/08 07:11:47;;;;;;;7.63;4.05;;;;;;;;;;5014816;28;20897;-65
2022/07/08 07:14:13;;;;;;;9.38;3.92;;;;;;;;;;5012685;28;20457;-64
2022/07/08 07:16:40;;;;;;;7.78;4.32;;;;;;;;;;5013543;28;20559;-64
2022/07/08 07:19:07;;;;;;;9.35;4.40;;;;;;;;;;5014100;28;20044;-64
2022/07/08 07:21:33;;;;;;;7.85;4.45;;;;;;;;;;5012766;28;20061;-64
2022/07/08 07:24:00;;;;;;;8.27;4.72;;;;;;;;;;5026928;28;20451;-65
2022/07/08 07:26:27;;;;;;;10.10;3.95;;;;;;;;;;5012733;28;20141;-65
2022/07/08 07:28:54;;;;;;;8.93;3.95;;;;;;;;;;5012247;28;20097;-65
2022/07/08 07:31:21;;;;;;;8.32;3.80;;;;;;;;;;5013176;28;20069;-65
2022/07/08 07:33:47;;;;;;;8.75;3.75;;;;;;;;;;5014137;28;20068;-65
2022/07/08 07:36:14;;;;;;;8.00;4.15;;;;;;;;;;5016715;28;20075;-66
2022/07/08 07:38:41;;;;;;;8.07;3.90;;;;;;;;;;5013907;28;21822;-65
2022/07/08 07:41:07;;;;;;;8.48;4.05;;;;;;;;;;5013249;28;20666;-65
2022/07/08 07:43:34;;;;;;;7.15;4.15;;;;;;;;;;5014312;28;20111;-66
2022/07/08 07:46:01;;;;;;;9.32;3.75;;;;;;;;;;5024659;28;20052;-65
2022/07/08 07:48:28;;;;;;;11.55;4.30;;;;;;;;;;5024904;28;20088;-65
2022/07/08 07:50:54;;;;;;;9.13;3.70;;;;;;;;;;5012894;28;20999;-65
2022/07/08 07:53:21;;;;;;;7.47;4.10;;;;;;;;;;5028447;28;20044;-65
2022/07/08 07:55:48;;;;;;;7.65;4.20;;;;;;;;;;5016003;28;20049;-65
2022/07/08 07:58:14;;;;;;;7.78;3.92;;;;;;;;;;5029956;28;20184;-65
2022/07/08 08:00:41;;;;;;;6.68;4.13;;;;;;;;;;5016201;28;20075;-66
2022/07/08 08:03:08;;;;;;;8.63;3.85;;;;;;;;;;5014948;28;20029;-65
2022/07/08 08:05:35;;;;;;;7.13;3.90;;;;;;;;;;5012025;28;20072;-65
2022/07/08 08:08:02;;;;;;;6.32;3.13;;;;;;;;;;5017627;28;20045;-64
2022/07/08 08:10:28;;;;;;;5.45;3.38;;;;;;;;;;5014091;28;20669;-65
2022/07/08 08:12:55;;;;;;;7.53;3.60;;;;;;;;;;5017441;28;20045;-64
2022/07/08 08:15:23;;;;;;;6.55;3.53;;;;;;;;;;5015735;28;20164;-63
2022/07/08 08:17:49;;;;;;;6.45;3.28;;;;;;;;;;5018795;28;20064;-65
2022/07/08 08:20:16;;;;;;;8.45;3.92;;;;;;;;;;5016314;28;20050;-64
2022/07/08 08:22:43;;;;;;;7.30;3.90;;;;;;;;;;5015668;28;20076;-66
2022/07/08 08:25:09;;;;;;;7.25;3.55;;;;;;;;;;5015204;28;20209;-64
2022/07/08 08:27:42;;;;;;;4.65;2.88;;;;;;;;;;5015039;28;20033;-63
2022/07/08 08:30:09;;;;;;;8.13;3.83;;;;;;;;;;5014578;28;20038;-63
2022/07/08 08:32:36;;;;;;;6.50;3.50;;;;;;;;;;5015384;28;20073;-63
2022/07/08 08:35:03;;;;;;;6.45;3.50;;;;;;;;;;5013654;28;20034;-65
2022/07/08 08:37:30;;;;;;;6.47;3.00;;;;;;;;;;5015981;28;20041;-63
2022/07/08 08:39:57;;;;;;;7.68;3.00;;;;;;;;;;5017693;28;20033;-63
2022/07/08 08:42:24;;;;;;;5.20;2.92;;;;;;;;;;5013888;28;20133;-64
2022/07/08 08:44:51;;;;;;;5.90;2.85;;;;;;;;;;5030216;28;20045;-63
2022/07/08 08:47:18;;;;;;;5.63;2.92;;;;;;;;;;5015865;28;20503;-63
2022/07/08 08:49:44;;;;;;;9.00;3.38;;;;;;;;;;5014903;28;20046;-64
2022/07/08 08:52:11;;;;;;;5.85;3.30;;;;;;;;;;5015649;28;20041;-64
2022/07/08 08:54:38;;;;;;;5.25;3.10;;;;;;;;;;5013221;28;20090;-64
2022/07/08 08:57:05;;;;;;;6.22;3.45;;;;;;;;;;5014248;28;20136;-65
2022/07/08 08:59:35;;;;;;;7.78;3.28;;;;;;;;;;5013743;28;20102;-63
2022/07/08 09:02:02;;;;;;;6.38;3.72;;;;;;;;;;5014749;28;20064;-63
2022/07/08 09:04:31;;;;;;;5.78;3.30;;;;;;;;;;5013639;28;20426;-63
2022/07/08 09:07:00;;;;;;;5.97;3.17;;;;;;;;;;5013476;28;20053;-64
2022/07/08 09:09:27;;;;;;;7.88;3.40;;;;;;;;;;5013582;28;20044;-64
2022/07/08 09:11:53;;;;;;;6.40;3.33;;;;;;;;;;5015679;28;20050;-64
2022/07/08 09:14:21;;;;;;;6.57;3.08;;;;;;;;;;5028666;28;20034;-64
2022/07/08 09:17:06;;;;;;;7.43;3.45;;;;;;;;;;5030481;28;20029;-64
2022/07/08 09:19:33;;;;;;;9.18;3.28;;;;;;;;;;5014661;28;20034;-64
2022/07/08 09:21:59;;;;;;;6.50;3.53;;;;;;;;;;5014838;28;20886;-64
2022/07/08 09:24:27;;;;;;;7.65;3.92;;;;;;;;;;5013762;28;20077;-63
2022/07/08 09:26:57;;;;;;;6.93;3.13;;;;;;;;;;5023343;28;20041;-63
2022/07/08 09:29:24;;;;;;;7.05;3.33;;;;;;;;;;5015887;28;20049;-63
2022/07/08 09:31:50;;;;;;;6.03;2.80;;;;;;;;;;5017025;28;20033;-63
2022/07/08 09:34:21;;;;;;;7.32;3.08;;;;;;;;;;5013171;28;20042;-61
2022/07/08 09:36:48;;;;;;;6.70;3.10;;;;;;;;;;5014655;28;20139;-63
2022/07/08 09:39:34;;;;;;;6.85;3.03;;;;;;;;;;5029136;28;20038;-63
2022/07/08 09:42:01;;;;;;;7.88;3.05;;;;;;;;;;5014587;28;20095;-62
2022/07/08 09:44:27;;;;;;;7.03;2.92;;;;;;;;;;5028515;28;20095;-63
2022/07/08 09:46:54;;;;;;;6.90;3.03;;;;;;;;;;5018155;28;20136;-64
2022/07/08 09:49:30;;;;;;;8.98;2.83;;;;;;;;;;5017496;28;20077;-63
2022/07/08 09:52:06;;;;;;;7.15;2.80;;;;;;;;;;5017802;28;20046;-64
2022/07/08 09:54:37;;;;;;;5.13;2.67;;;;;;;;;;5014244;28;20052;-64
2022/07/08 09:57:08;;;;;;;5.70;2.88;;;;;;;;;;5016050;28;20045;-63
2022/07/08 09:59:36;;;;;;;4.63;2.40;;;;;;;;;;5015564;28;20152;-63
2022/07/08 10:02:14;;;;;;;5.47;2.33;;;;;;;;;;5013116;28;20041;-64
2022/07/08 10:04:42;;;;;;;5.28;2.10;;;;;;;;;;5013462;28;20049;-63
2022/07/08 10:07:08;;;;;;;4.95;2.03;;;;;;;;;;5016825;28;20045;-64
2022/07/08 10:09:35;;;;;;;4.60;2.03;;;;;;;;;;5021028;28;20042;-63
2022/07/08 10:12:03;;;;;;;3.40;1.65;;;;;;;;;;5016199;28;20049;-63
2022/07/08 10:14:30;;;;;;;3.75;1.45;;;;;;;;;;5012998;28;20045;-63
2022/07/08 10:16:57;;;;;;;4.15;1.67;;;;;;;;;;5016499;28;20092;-63
2022/07/08 10:19:38;;;;;;;5.50;1.60;;;;;;;;;;5014347;28;20046;-65
2022/07/08 10:22:06;;;;;;;4.80;1.95;;;;;;;;;;5014076;28;20037;-64
2022/07/08 10:24:33;;;;;;;3.70;1.50;;;;;;;;;;5012328;28;20053;-62
2022/07/08 10:27:02;;;;;;;3.58;1.67;;;;;;;;;;5014525;28;20177;-65
2022/07/08 10:29:32;;;;;;;5.63;1.60;;;;;;;;;;5014323;28;20049;-63
2022/07/08 10:31:59;;;;;;;4.45;1.48;;;;;;;;;;5017608;28;20044;-65
2022/07/08 10:34:39;;;;;;;3.13;1.35;;;;;;;;;;5014743;28;20049;-64
2022/07/08 10:37:06;;;;;;;4.22;1.77;;;;;;;;;;5013124;28;20057;-64
2022/07/08 10:39:32;;;;;;;3.92;1.80;;;;;;;;;;5012841;28;20161;-63
2022/07/08 10:42:09;;;;;;;4.30;1.80;;;;;;;;;;5013827;28;20083;-63
2022/07/08 10:44:44;;;;;;;3.60;1.52;;;;;;;;;;5011420;28;20513;-63
2022/07/08 10:47:11;;;;;;;3.97;1.63;;;;;;;;;;5012626;28;20053;-63
2022/07/08 10:50:02;;;;;;;3.85;1.80;;;;;;;;;;5025341;28;20049;-63
2022/07/08 10:52:35;;;;;;;5.85;1.70;;;;;;;;;;5014215;28;20055;-63
2022/07/08 10:55:12;;;;;;;4.68;1.65;;;;;;;;;;5012067;28;20198;-63
2022/07/08 10:57:39;;;;;;;5.22;2.30;;;;;;;;;;5012579;28;20092;-62
2022/07/08 11:00:10;;;;;;;6.07;1.85;;;;;;;;;;5013107;28;20135;-63
2022/07/08 11:02:43;;;;;;;5.38;1.90;;;;;;;;;;5010590;28;20073;-64
2022/07/08 11:05:28;;;;;;;4.05;1.85;;;;;;;;;;5012955;28;20357;-62
2022/07/08 11:08:14;;;;;;;7.32;1.80;;;;;;;;;;5009966;28;20044;-62
2022/07/08 11:10:41;;;;;;;4.22;1.95;;;;;;;;;;5012666;28;20060;-62
2022/07/08 11:13:08;;;;;;;6.55;2.90;;;;;;;;;;5028666;28;20553;-64
2022/07/08 11:15:35;;;;;;;6.43;2.03;;;;;;;;;;5011776;28;20088;-62
2022/07/08 11:18:02;;;;;;;5.82;1.90;;;;;;;;;;5024208;28;20041;-61
2022/07/08 11:20:31;;;;;;;4.00;1.67;;;;;;;;;;5011193;28;20041;-61
2022/07/08 11:22:58;;;;;;;3.30;1.60;;;;;;;;;;5010875;28;20782;-59
2022/07/08 11:25:25;;;;;;;7.60;1.92;;;;;;;;;;5013632;28;20151;-62
2022/07/08 11:27:51;;;;;;;3.92;2.08;;;;;;;;;;5010248;28;20785;-62
2022/07/08 11:30:18;;;;;;;6.82;1.95;;;;;;;;;;5012891;28;21642;-63
2022/07/08 11:32:48;;;;;;;4.25;1.90;;;;;;;;;;5009962;28;20596;-67
2022/07/08 11:35:22;;;;;;;7.53;1.85;;;;;;;;;;5013837;28;20029;-63
2022/07/08 11:37:48;;;;;;;;;;;;;;;;;;5012965;28;20071;-60
2022/07/08 11:40:18;;;;;;;5.50;1.90;;;;;;;;;;5010638;28;20021;-60
2022/07/08 11:42:45;;;;;;;5.85;2.08;;;;;;;;;;5009742;28;20808;-63
2022/07/08 11:45:12;;;;;;;5.18;1.88;;;;;;;;;;5009173;28;20050;-63
2022/07/08 11:47:40;;;;;;;4.13;2.10;;;;;;;;;;5010289;28;20542;-62
2022/07/08 11:50:13;;;;;;;4.18;1.77;;;;;;;;;;5010415;28;20087;-63
2022/07/08 11:52:39;;;;;;;;;;;;;;;;;;5010737;28;20052;-61
2022/07/08 11:55:09;;;;;;;3.65;1.80;;;;;;;;;;5013483;28;19917;-62
2022/07/08 11:57:43;;;;;;;4.55;2.10;;;;;;;;;;5011145;28;20052;-60
2022/07/08 12:00:10;;;;;;;5.20;2.03;;;;;;;;;;5014560;28;20034;-64
2022/07/08 12:02:36;;;;;;;5.38;2.20;;;;;;;;;;5010910;28;20406;-63
2022/07/08 12:05:07;;;;;;;6.82;2.13;;;;;;;;;;5013328;28;20041;-62
2022/07/08 12:07:34;;;;;;;5.47;2.33;;;;;;;;;;5010557;28;20037;-62
2022/07/08 12:10:03;;;;;;;4.68;1.85;;;;;;;;;;5011452;28;20127;-62
2022/07/08 12:12:31;;;;;;;4.82;1.90;;;;;;;;;;5012302;28;20647;-62
2022/07/08 12:14:58;;;;;;;4.10;2.20;;;;;;;;;;5011787;28;20045;-62
2022/07/08 12:17:28;;;;;;;5.43;2.17;;;;;;;;;;5011369;28;20140;-61
2022/07/08 12:19:56;;;;;;;4.53;1.83;;;;;;;;;;5014526;28;20050;-63
2022/07/08 12:22:40;;;;;;;3.20;1.60;;;;;;;;;;5013635;28;20065;-62
2022/07/08 12:25:07;;;;;;;3.40;1.65;;;;;;;;;;5010737;28;20041;-63
2022/07/08 12:27:34;;;;;;;10.10;2.00;;;;;;;;;;5009980;28;20057;-64
2022/07/08 12:30:07;;;;;;;4.50;1.60;;;;;;;;;;5009655;28;20215;-64
2022/07/08 12:32:33;;;;;;;;;;;;;;;;;;5010253;28;20037;-64
2022/07/08 12:35:03;;;;;;;4.82;2.00;;;;;;;;;;5008158;28;20886;-65
2022/07/08 12:37:29;;;;;;;6.05;2.13;;;;;;;;;;5010535;28;21046;-64
2022/07/08 12:39:56;;;;;;;4.35;1.65;;;;;;;;;;5025290;28;20053;-65
2022/07/08 12:42:26;;;;;;;6.47;1.90;;;;;;;;;;5011978;28;20037;-66
2022/07/08 12:44:56;;;;;;;4.80;1.98;;;;;;;;;;5011071;28;20430;-58
2022/07/08 12:47:23;;;;;;;6.05;2.10;;;;;;;;;;5009181;28;20096;-56
2022/07/08 12:49:56;;;;;;;3.72;1.85;;;;;;;;;;5011166;28;20038;-63
2022/07/08 12:52:23;;;;;;;4.35;1.73;;;;;;;;;;5009137;28;20120;-63
2022/07/08 12:54:49;;;;;;;5.97;2.10;;;;;;;;;;5007161;28;20052;-63
2022/07/08 12:57:16;;;;;;;3.97;1.95;;;;;;;;;;5013286;28;20072;-62
2022/07/08 12:59:43;;;;;;;5.72;2.08;;;;;;;;;;5015709;28;20038;-62
2022/07/08 13:02:09;;;;;;;3.50;1.80;;;;;;;;;;5030248;28;20878;-62
2022/07/08 13:04:36;;;;;;;4.32;2.00;;;;;;;;;;5014346;28;20034;-63
2022/07/08 13:07:03;;;;;;;3.50;1.80;;;;;;;;;;5015148;28;20061;-62
2022/07/08 13:09:30;;;;;;;3.83;1.90;;;;;;;;;;5013647;28;20037;-63
2022/07/08 13:11:57;;;;;;;6.53;2.10;;;;;;;;;;5014324;28;20553;-63
2022/07/08 13:14:23;;;;;;;3.80;1.95;;;;;;;;;;5013191;28;22281;-63
2022/07/08 13:16:50;;;;;;;5.80;2.33;;;;;;;;;;5013973;28;20486;-63
2022/07/08 13:19:17;;;;;;;4.60;2.20;;;;;;;;;;5014062;28;20045;-63
2022/07/08 13:21:43;;;;;;;4.50;2.13;;;;;;;;;;5016803;28;20285;-63
2022/07/08 13:24:10;;;;;;;5.65;2.10;;;;;;;;;;5015696;28;20520;-63
2022/07/08 13:26:37;;;;;;;4.10;2.00;;;;;;;;;;5014238;28;20077;-62
2022/07/08 13:29:04;;;;;;;5.60;2.20;;;;;;;;;;5015233;28;20037;-63
2022/07/08 13:31:31;;;;;;;5.22;1.95;;;;;;;;;;5014284;28;20041;-63
2022/07/08 13:33:57;;;;;;;3.97;1.80;;;;;;;;;;5015939;28;20075;-62
2022/07/08 13:36:24;;;;;;;3.72;1.90;;;;;;;;;;5013064;28;20551;-63
2022/07/08 13:38:51;;;;;;;4.45;1.80;;;;;;;;;;5013233;28;20042;-63
2022/07/08 13:41:19;;;;;;;5.05;2.00;;;;;;;;;;5014627;28;20057;-63
2022/07/08 13:43:46;;;;;;;7.47;2.33;;;;;;;;;;5012960;28;20601;-63
2022/07/08 13:46:12;;;;;;;4.68;2.05;;;;;;;;;;4995526;28;20061;-63
2022/07/08 13:48:39;;;;;;;6.07;2.17;;;;;;;;;;4994480;28;20035;-63
2022/07/08 13:51:06;;;;;;;8.07;1.92;;;;;;;;;;5007712;28;20057;-63
2022/07/08 13:53:32;;;;;;;5.88;1.80;;;;;;;;;;5000256;28;20043;-63
2022/07/08 13:55:59;;;;;;;4.00;1.90;;;;;;;;;;4994533;28;20048;-63
2022/07/08 13:58:26;;;;;;;4.50;1.90;;;;;;;;;;4993314;28;20049;-63
2022/07/08 14:00:52;;;;;;;3.85;1.90;;;;;;;;;;4992301;28;20033;-62
2022/07/08 14:03:19;;;;;;;4.97;2.00;;;;;;;;;;5001004;28;20042;-63
2022/07/08 14:05:46;;;;;;;5.15;2.00;;;;;;;;;;4992341;28;20053;-63
2022/07/08 14:08:12;;;;;;;3.38;1.70;;;;;;;;;;4994468;28;20033;-63
2022/07/08 14:10:39;;;;;;;5.65;1.85;;;;;;;;;;4992164;28;20135;-63
2022/07/08 14:13:06;;;;;;;5.03;1.88;;;;;;;;;;4992073;28;20050;-63
2022/07/08 14:15:33;;;;;;;5.13;1.98;;;;;;;;;;4992332;28;20034;-63
2022/07/08 14:17:59;;;;;;;5.47;2.08;;;;;;;;;;4994023;28;20042;-63
2022/07/08 14:20:26;;;;;;;5.40;2.10;;;;;;;;;;4990664;28;20440;-60
2022/07/08 14:22:52;;;;;;;4.18;2.00;;;;;;;;;;4992866;28;20403;-62
2022/07/08 14:25:19;;;;;;;5.43;1.90;;;;;;;;;;4995087;28;20041;-62
2022/07/08 14:27:46;;;;;;;5.43;1.95;;;;;;;;;;5004746;28;20402;-60
2022/07/08 14:30:12;;;;;;;4.80;1.83;;;;;;;;;;4995705;28;20038;-62
2022/07/08 14:32:39;;;;;;;4.10;1.90;;;;;;;;;;4991143;28;20044;-62
2022/07/08 14:35:06;;;;;;;4.63;2.08;;;;;;;;;;4993762;28;20042;-62
2022/07/08 14:37:33;;;;;;;5.55;2.35;;;;;;;;;;4992189;28;20030;-61
2022/07/08 14:39:59;;;;;;;3.63;2.00;;;;;;;;;;4993116;28;20161;-62
2022/07/08 14:42:26;;;;;;;7.63;1.88;;;;;;;;;;4990319;28;20910;-62
2022/07/08 14:44:53;;;;;;;4.00;2.10;;;;;;;;;;4994041;28;20082;-62
2022/07/08 14:47:19;;;;;;;4.10;1.77;;;;;;;;;;4994958;28;20054;-61